Terminal Aerodrome Forecast
Issued by NWS Louisville, KY

Home | Current Version | Previous Version | Text Only | Print | Product List | Glossary On
Versions: 1 2 3 4 5 6 7 8 9 10 11 12 13 14 15 16 17 18 19 20 21
000
FTUS43 KLMK 260820 AAA
TAFBWG
TAF AMD
KBWG 260820Z 2608/2706 00000KT P6SM BKN060
     FM260900 00000KT 4SM BR BKN060
     FM261400 21010KT P6SM BKN050
     FM261800 22012KT P6SM SCT050
     FM270000 17004KT P6SM SCT250=

USA.gov is the U.S. government's official web portal to all federal, state and local government web resources and services.